sensor_id;sensor_type;location;lat;lon;timestamp;P1;durP1;ratioP1;P2;durP2;ratioP2
65543;SDS011;52173;45.204;39.240;2023-07-13T02:34:51;8.27;;;3.60;;
65543;SDS011;52173;45.204;39.240;2023-07-13T02:37:17;5.03;;;3.33;;
65543;SDS011;52173;45.204;39.240;2023-07-13T02:39:43;7.88;;;3.60;;
65543;SDS011;52173;45.204;39.240;2023-07-13T02:42:09;6.78;;;3.60;;
65543;SDS011;52173;45.204;39.240;2023-07-13T02:44:36;4.97;;;3.22;;
65543;SDS011;52173;45.204;39.240;2023-07-13T02:47:02;6.65;;;3.45;;
65543;SDS011;52173;45.204;39.240;2023-07-13T02:49:29;4.88;;;3.55;;
65543;SDS011;52173;45.204;39.240;2023-07-13T02:51:54;7.55;;;3.60;;
65543;SDS011;52173;45.204;39.240;2023-07-13T02:54:21;6.03;;;3.35;;
65543;SDS011;52173;45.204;39.240;2023-07-13T02:56:48;6.95;;;3.10;;
65543;SDS011;52173;45.204;39.240;2023-07-13T02:59:14;5.57;;;3.30;;
65543;SDS011;52173;45.204;39.240;2023-07-13T03:01:40;8.35;;;3.75;;
65543;SDS011;52173;45.204;39.240;2023-07-13T03:04:06;5.18;;;3.17;;
65543;SDS011;52173;45.204;39.240;2023-07-13T03:06:34;7.05;;;2.85;;
65543;SDS011;52173;45.204;39.240;2023-07-13T03:09:00;5.60;;;3.25;;
65543;SDS011;52173;45.204;39.240;2023-07-13T03:11:28;6.57;;;2.80;;
65543;SDS011;52173;45.204;39.240;2023-07-13T03:14:02;8.68;;;3.17;;
65543;SDS011;52173;45.204;39.240;2023-07-13T03:16:32;4.63;;;2.83;;
65543;SDS011;52173;45.204;39.240;2023-07-13T03:18:58;6.65;;;2.97;;
65543;SDS011;52173;45.204;39.240;2023-07-13T03:21:29;6.50;;;3.00;;
65543;SDS011;52173;45.204;39.240;2023-07-13T03:23:56;5.15;;;2.90;;
65543;SDS011;52173;45.204;39.240;2023-07-13T03:26:22;8.90;;;3.53;;
65543;SDS011;52173;45.204;39.240;2023-07-13T03:28:48;7.82;;;3.13;;
65543;SDS011;52173;45.204;39.240;2023-07-13T03:31:20;6.93;;;3.15;;
65543;SDS011;52173;45.204;39.240;2023-07-13T03:33:46;7.97;;;3.55;;
65543;SDS011;52173;45.204;39.240;2023-07-13T03:36:16;7.50;;;3.05;;
65543;SDS011;52173;45.204;39.240;2023-07-13T03:38:49;7.22;;;2.80;;
65543;SDS011;52173;45.204;39.240;2023-07-13T03:41:17;5.60;;;2.70;;
65543;SDS011;52173;45.204;39.240;2023-07-13T03:43:43;6.32;;;2.90;;
65543;SDS011;52173;45.204;39.240;2023-07-13T03:46:10;4.60;;;2.63;;
65543;SDS011;52173;45.204;39.240;2023-07-13T03:48:36;7.20;;;3.35;;
65543;SDS011;52173;45.204;39.240;2023-07-13T03:51:02;6.82;;;2.38;;
65543;SDS011;52173;45.204;39.240;2023-07-13T03:53:29;5.40;;;2.45;;
65543;SDS011;52173;45.204;39.240;2023-07-13T03:55:55;4.30;;;2.67;;
65543;SDS011;52173;45.204;39.240;2023-07-13T04:00:57;3.47;;;2.30;;
65543;SDS011;52173;45.204;39.240;2023-07-13T04:03:23;8.15;;;2.80;;
65543;SDS011;52173;45.204;39.240;2023-07-13T04:05:49;6.95;;;2.90;;
65543;SDS011;52173;45.204;39.240;2023-07-13T04:08:15;5.75;;;3.28;;
65543;SDS011;52173;45.204;39.240;2023-07-13T04:10:41;6.68;;;2.60;;
65543;SDS011;52173;45.204;39.240;2023-07-13T04:13:09;7.65;;;2.92;;
65543;SDS011;52173;45.204;39.240;2023-07-13T04:15:35;7.68;;;2.90;;
65543;SDS011;52173;45.204;39.240;2023-07-13T04:18:01;5.95;;;2.50;;
65543;SDS011;52173;45.204;39.240;2023-07-13T04:20:28;6.88;;;2.78;;
65543;SDS011;52173;45.204;39.240;2023-07-13T04:22:54;6.30;;;2.65;;
65543;SDS011;52173;45.204;39.240;2023-07-13T04:25:20;5.53;;;2.70;;
65543;SDS011;52173;45.204;39.240;2023-07-13T04:27:46;9.38;;;3.63;;
65543;SDS011;52173;45.204;39.240;2023-07-13T04:30:12;7.25;;;2.83;;
65543;SDS011;52173;45.204;39.240;2023-07-13T04:32:38;6.95;;;3.05;;
65543;SDS011;52173;45.204;39.240;2023-07-13T04:35:04;6.78;;;2.50;;
65543;SDS011;52173;45.204;39.240;2023-07-13T04:37:30;6.20;;;3.05;;
65543;SDS011;52173;45.204;39.240;2023-07-13T04:39:56;5.78;;;2.72;;
65543;SDS011;52173;45.204;39.240;2023-07-13T04:42:22;7.75;;;2.90;;
65543;SDS011;52173;45.204;39.240;2023-07-13T04:44:49;9.95;;;2.88;;
65543;SDS011;52173;45.204;39.240;2023-07-13T04:47:15;7.53;;;2.97;;
65543;SDS011;52173;45.204;39.240;2023-07-13T04:49:41;12.57;;;2.88;;
65543;SDS011;52173;45.204;39.240;2023-07-13T04:52:07;4.32;;;2.58;;
65543;SDS011;52173;45.204;39.240;2023-07-13T04:54:33;6.15;;;2.75;;
65543;SDS011;52173;45.204;39.240;2023-07-13T04:57:00;4.35;;;2.90;;
65543;SDS011;52173;45.204;39.240;2023-07-13T04:59:26;7.03;;;2.78;;
65543;SDS011;52173;45.204;39.240;2023-07-13T05:01:52;7.68;;;2.80;;
65543;SDS011;52173;45.204;39.240;2023-07-13T05:04:18;6.57;;;2.90;;
65543;SDS011;52173;45.204;39.240;2023-07-13T05:06:44;5.28;;;3.00;;
65543;SDS011;52173;45.204;39.240;2023-07-13T05:09:10;6.78;;;2.70;;
65543;SDS011;52173;45.204;39.240;2023-07-13T05:11:36;5.05;;;2.60;;
65543;SDS011;52173;45.204;39.240;2023-07-13T05:14:01;5.13;;;2.83;;
65543;SDS011;52173;45.204;39.240;2023-07-13T05:16:27;10.88;;;3.08;;
65543;SDS011;52173;45.204;39.240;2023-07-13T05:18:53;9.70;;;2.90;;
65543;SDS011;52173;45.204;39.240;2023-07-13T05:21:19;12.48;;;3.00;;
65543;SDS011;52173;45.204;39.240;2023-07-13T05:23:46;6.85;;;2.80;;
65543;SDS011;52173;45.204;39.240;2023-07-13T05:26:13;4.47;;;2.70;;
65543;SDS011;52173;45.204;39.240;2023-07-13T05:28:39;7.47;;;3.38;;
65543;SDS011;52173;45.204;39.240;2023-07-13T05:31:07;5.28;;;3.05;;
65543;SDS011;52173;45.204;39.240;2023-07-13T05:33:33;5.60;;;3.50;;
65543;SDS011;52173;45.204;39.240;2023-07-13T05:38:28;7.00;;;2.80;;
65543;SDS011;52173;45.204;39.240;2023-07-13T05:40:54;6.95;;;3.00;;
65543;SDS011;52173;45.204;39.240;2023-07-13T05:43:21;6.97;;;3.22;;
65543;SDS011;52173;45.204;39.240;2023-07-13T05:45:48;5.35;;;2.97;;
65543;SDS011;52173;45.204;39.240;2023-07-13T05:48:14;9.35;;;3.42;;
65543;SDS011;52173;45.204;39.240;2023-07-13T05:53:09;5.82;;;2.92;;
65543;SDS011;52173;45.204;39.240;2023-07-13T05:58:03;7.45;;;2.72;;
65543;SDS011;52173;45.204;39.240;2023-07-13T06:00:29;7.85;;;3.50;;
65543;SDS011;52173;45.204;39.240;2023-07-13T06:02:55;7.50;;;3.17;;
65543;SDS011;52173;45.204;39.240;2023-07-13T06:05:22;5.95;;;2.97;;
65543;SDS011;52173;45.204;39.240;2023-07-13T06:07:48;6.10;;;3.30;;
65543;SDS011;52173;45.204;39.240;2023-07-13T06:10:14;6.15;;;2.97;;
65543;SDS011;52173;45.204;39.240;2023-07-13T06:12:39;4.57;;;2.92;;
65543;SDS011;52173;45.204;39.240;2023-07-13T06:15:05;6.90;;;2.97;;
65543;SDS011;52173;45.204;39.240;2023-07-13T06:17:31;4.15;;;2.85;;
65543;SDS011;52173;45.204;39.240;2023-07-13T06:19:58;7.90;;;3.30;;
65543;SDS011;52173;45.204;39.240;2023-07-13T06:22:24;5.80;;;3.15;;
65543;SDS011;52173;45.204;39.240;2023-07-13T06:24:50;8.85;;;3.40;;
65543;SDS011;52173;45.204;39.240;2023-07-13T06:27:16;22.02;;;6.50;;
65543;SDS011;52173;45.204;39.240;2023-07-13T06:29:43;12.23;;;3.70;;
65543;SDS011;52173;45.204;39.240;2023-07-13T06:32:10;7.72;;;4.05;;
65543;SDS011;52173;45.204;39.240;2023-07-13T06:34:36;9.75;;;3.65;;
65543;SDS011;52173;45.204;39.240;2023-07-13T06:37:03;8.50;;;3.40;;
65543;SDS011;52173;45.204;39.240;2023-07-13T06:39:29;5.43;;;3.30;;
65543;SDS011;52173;45.204;39.240;2023-07-13T06:41:55;5.53;;;3.22;;
65543;SDS011;52173;45.204;39.240;2023-07-13T06:44:31;7.40;;;3.15;;
65543;SDS011;52173;45.204;39.240;2023-07-13T06:46:57;7.55;;;3.13;;
65543;SDS011;52173;45.204;39.240;2023-07-13T06:51:53;4.90;;;3.20;;
65543;SDS011;52173;45.204;39.240;2023-07-13T06:54:19;6.88;;;3.20;;
65543;SDS011;52173;45.204;39.240;2023-07-13T06:59:16;5.25;;;2.90;;
65543;SDS011;52173;45.204;39.240;2023-07-13T07:01:42;6.40;;;3.13;;
65543;SDS011;52173;45.204;39.240;2023-07-13T07:04:07;5.60;;;3.22;;
65543;SDS011;52173;45.204;39.240;2023-07-13T07:06:34;5.55;;;3.13;;
65543;SDS011;52173;45.204;39.240;2023-07-13T07:09:00;7.95;;;3.03;;
65543;SDS011;52173;45.204;39.240;2023-07-13T07:11:26;4.97;;;2.97;;
65543;SDS011;52173;45.204;39.240;2023-07-13T07:13:53;7.95;;;3.33;;
65543;SDS011;52173;45.204;39.240;2023-07-13T07:16:19;7.47;;;3.40;;
65543;SDS011;52173;45.204;39.240;2023-07-13T07:18:46;5.93;;;3.10;;
65543;SDS011;52173;45.204;39.240;2023-07-13T07:21:19;5.35;;;3.08;;
65543;SDS011;52173;45.204;39.240;2023-07-13T07:23:46;5.55;;;3.10;;
65543;SDS011;52173;45.204;39.240;2023-07-13T07:26:12;5.82;;;3.28;;
65543;SDS011;52173;45.204;39.240;2023-07-13T07:28:38;5.20;;;2.92;;
65543;SDS011;52173;45.204;39.240;2023-07-13T07:31:05;5.45;;;3.20;;
65543;SDS011;52173;45.204;39.240;2023-07-13T07:36:59;7.55;;;3.10;;
65543;SDS011;52173;45.204;39.240;2023-07-13T07:39:25;6.75;;;2.90;;
65543;SDS011;52173;45.204;39.240;2023-07-13T07:41:51;6.00;;;2.83;;
65543;SDS011;52173;45.204;39.240;2023-07-13T07:44:17;5.10;;;3.00;;
65543;SDS011;52173;45.204;39.240;2023-07-13T07:46:43;5.35;;;2.63;;
65543;SDS011;52173;45.204;39.240;2023-07-13T07:49:09;5.28;;;2.92;;
65543;SDS011;52173;45.204;39.240;2023-07-13T07:51:36;7.30;;;3.20;;
65543;SDS011;52173;45.204;39.240;2023-07-13T07:54:02;8.05;;;3.38;;
65543;SDS011;52173;45.204;39.240;2023-07-13T07:56:27;6.93;;;3.05;;
65543;SDS011;52173;45.204;39.240;2023-07-13T08:01:24;4.82;;;3.00;;
65543;SDS011;52173;45.204;39.240;2023-07-13T08:03:54;7.15;;;2.80;;
65543;SDS011;52173;45.204;39.240;2023-07-13T08:06:22;5.32;;;3.25;;
65543;SDS011;52173;45.204;39.240;2023-07-13T08:08:49;6.82;;;3.00;;
65543;SDS011;52173;45.204;39.240;2023-07-13T08:13:44;6.93;;;2.80;;
65543;SDS011;52173;45.204;39.240;2023-07-13T08:16:11;7.47;;;3.13;;
65543;SDS011;52173;45.204;39.240;2023-07-13T08:18:37;6.43;;;2.92;;
65543;SDS011;52173;45.204;39.240;2023-07-13T08:21:04;7.00;;;3.20;;
65543;SDS011;52173;45.204;39.240;2023-07-13T08:23:30;7.32;;;3.08;;
65543;SDS011;52173;45.204;39.240;2023-07-13T08:25:58;7.13;;;3.22;;
65543;SDS011;52173;45.204;39.240;2023-07-13T08:28:24;10.15;;;3.25;;
65543;SDS011;52173;45.204;39.240;2023-07-13T08:30:50;7.72;;;3.10;;
65543;SDS011;52173;45.204;39.240;2023-07-13T08:33:17;7.40;;;3.58;;
65543;SDS011;52173;45.204;39.240;2023-07-13T08:35:47;6.50;;;3.20;;
65543;SDS011;52173;45.204;39.240;2023-07-13T08:38:13;5.18;;;3.17;;
65543;SDS011;52173;45.204;39.240;2023-07-13T08:40:39;6.35;;;3.35;;
65543;SDS011;52173;45.204;39.240;2023-07-13T08:43:05;7.20;;;3.65;;
65543;SDS011;52173;45.204;39.240;2023-07-13T08:48:04;10.40;;;3.30;;
65543;SDS011;52173;45.204;39.240;2023-07-13T08:50:42;9.18;;;3.65;;
65543;SDS011;52173;45.204;39.240;2023-07-13T08:53:14;8.20;;;3.40;;
65543;SDS011;52173;45.204;39.240;2023-07-13T08:55:40;8.43;;;4.20;;
65543;SDS011;52173;45.204;39.240;2023-07-13T08:58:13;6.72;;;3.80;;
65543;SDS011;52173;45.204;39.240;2023-07-13T09:00:44;7.28;;;3.60;;
65543;SDS011;52173;45.204;39.240;2023-07-13T09:03:18;4.88;;;3.40;;
65543;SDS011;52173;45.204;39.240;2023-07-13T09:05:47;6.90;;;2.75;;
65543;SDS011;52173;45.204;39.240;2023-07-13T09:19:57;4.55;;;2.92;;
65543;SDS011;52173;45.204;39.240;2023-07-13T09:22:25;8.63;;;3.10;;
65543;SDS011;52173;45.204;39.240;2023-07-13T09:24:56;15.30;;;3.28;;
65543;SDS011;52173;45.204;39.240;2023-07-13T09:27:26;13.02;;;3.22;;
65543;SDS011;52173;45.204;39.240;2023-07-13T09:30:01;10.43;;;3.13;;
65543;SDS011;52173;45.204;39.240;2023-07-13T09:32:28;5.82;;;3.10;;
65543;SDS011;52173;45.204;39.240;2023-07-13T09:34:54;9.45;;;3.22;;
65543;SDS011;52173;45.204;39.240;2023-07-13T09:37:21;12.05;;;3.47;;
65543;SDS011;52173;45.204;39.240;2023-07-13T09:39:48;7.78;;;3.42;;
65543;SDS011;52173;45.204;39.240;2023-07-13T09:42:19;7.22;;;3.33;;
65543;SDS011;52173;45.204;39.240;2023-07-13T09:47:19;5.10;;;3.30;;
65543;SDS011;52173;45.204;39.240;2023-07-13T09:49:45;12.32;;;3.50;;
65543;SDS011;52173;45.204;39.240;2023-07-13T09:52:12;7.05;;;3.53;;
65543;SDS011;52173;45.204;39.240;2023-07-13T09:54:39;13.43;;;3.55;;
65543;SDS011;52173;45.204;39.240;2023-07-13T09:57:13;12.20;;;4.10;;
65543;SDS011;52173;45.204;39.240;2023-07-13T09:59:40;6.78;;;3.65;;
65543;SDS011;52173;45.204;39.240;2023-07-13T10:10:15;7.55;;;4.68;;
65543;SDS011;52173;45.204;39.240;2023-07-13T10:12:41;10.70;;;5.10;;
65543;SDS011;52173;45.204;39.240;2023-07-13T10:15:09;7.03;;;4.40;;
65543;SDS011;52173;45.204;39.240;2023-07-13T10:17:39;6.82;;;4.07;;
65543;SDS011;52173;45.204;39.240;2023-07-13T10:20:06;6.75;;;3.78;;
65543;SDS011;52173;45.204;39.240;2023-07-13T10:25:24;6.65;;;3.72;;
65543;SDS011;52173;45.204;39.240;2023-07-13T10:27:52;6.43;;;3.55;;
65543;SDS011;52173;45.204;39.240;2023-07-13T10:30:20;4.40;;;2.95;;
65543;SDS011;52173;45.204;39.240;2023-07-13T10:32:48;4.60;;;3.28;;
65543;SDS011;52173;45.204;39.240;2023-07-13T10:35:15;6.40;;;3.00;;
65543;SDS011;52173;45.204;39.240;2023-07-13T10:40:16;5.80;;;3.08;;
65543;SDS011;52173;45.204;39.240;2023-07-13T10:45:14;7.20;;;2.83;;
65543;SDS011;52173;45.204;39.240;2023-07-13T10:47:41;4.07;;;2.65;;
65543;SDS011;52173;45.204;39.240;2023-07-13T10:50:11;7.43;;;2.95;;
65543;SDS011;52173;45.204;39.240;2023-07-13T10:52:45;5.55;;;2.50;;
65543;SDS011;52173;45.204;39.240;2023-07-13T10:57:59;5.00;;;3.08;;
65543;SDS011;52173;45.204;39.240;2023-07-13T11:00:25;6.57;;;3.25;;
65543;SDS011;52173;45.204;39.240;2023-07-13T11:02:56;4.72;;;3.05;;
65543;SDS011;52173;45.204;39.240;2023-07-13T11:05:27;8.57;;;2.80;;
65543;SDS011;52173;45.204;39.240;2023-07-13T11:08:54;5.55;;;2.80;;
65543;SDS011;52173;45.204;39.240;2023-07-13T11:10:53;5.22;;;3.03;;
65543;SDS011;52173;45.204;39.240;2023-07-13T11:13:36;4.00;;;3.00;;
65543;SDS011;52173;45.204;39.240;2023-07-13T11:16:12;6.47;;;2.90;;
65543;SDS011;52173;45.204;39.240;2023-07-13T11:18:38;6.13;;;3.10;;
65543;SDS011;52173;45.204;39.240;2023-07-13T11:21:14;8.40;;;3.25;;
65543;SDS011;52173;45.204;39.240;2023-07-13T11:23:44;7.68;;;3.25;;
65543;SDS011;52173;45.204;39.240;2023-07-13T11:28:54;4.88;;;3.10;;
65543;SDS011;52173;45.204;39.240;2023-07-13T11:31:20;10.25;;;3.17;;
65543;SDS011;52173;45.204;39.240;2023-07-13T11:33:52;7.90;;;3.47;;
65543;SDS011;52173;45.204;39.240;2023-07-13T11:36:19;5.38;;;3.22;;
65543;SDS011;52173;45.204;39.240;2023-07-13T11:39:01;10.15;;;3.50;;
65543;SDS011;52173;45.204;39.240;2023-07-13T11:41:28;4.00;;;2.78;;
65543;SDS011;52173;45.204;39.240;2023-07-13T11:44:14;5.90;;;3.40;;
65543;SDS011;52173;45.204;39.240;2023-07-13T11:46:44;5.03;;;3.10;;
65543;SDS011;52173;45.204;39.240;2023-07-13T11:49:11;9.13;;;3.85;;
65543;SDS011;52173;45.204;39.240;2023-07-13T11:51:39;7.05;;;3.25;;
65543;SDS011;52173;45.204;39.240;2023-07-13T11:54:21;8.55;;;3.50;;
65543;SDS011;52173;45.204;39.240;2023-07-13T11:56:48;8.80;;;3.53;;
65543;SDS011;52173;45.204;39.240;2023-07-13T11:59:16;10.15;;;3.70;;
65543;SDS011;52173;45.204;39.240;2023-07-13T12:01:47;8.18;;;3.20;;
65543;SDS011;52173;45.204;39.240;2023-07-13T12:04:25;8.00;;;3.53;;
65543;SDS011;52173;45.204;39.240;2023-07-13T12:09:48;8.18;;;3.45;;
65543;SDS011;52173;45.204;39.240;2023-07-13T12:12:21;5.63;;;3.15;;
65543;SDS011;52173;45.204;39.240;2023-07-13T12:14:50;8.68;;;3.45;;
65543;SDS011;52173;45.204;39.240;2023-07-13T12:17:20;6.78;;;3.20;;
65543;SDS011;52173;45.204;39.240;2023-07-13T12:19:47;5.88;;;3.40;;
65543;SDS011;52173;45.204;39.240;2023-07-13T12:22:13;7.03;;;3.22;;
65543;SDS011;52173;45.204;39.240;2023-07-13T12:24:42;10.77;;;3.60;;
65543;SDS011;52173;45.204;39.240;2023-07-13T12:30:05;6.25;;;3.10;;
65543;SDS011;52173;45.204;39.240;2023-07-13T12:32:33;6.28;;;3.03;;
65543;SDS011;52173;45.204;39.240;2023-07-13T12:35:14;5.35;;;3.45;;
65543;SDS011;52173;45.204;39.240;2023-07-13T12:37:43;5.75;;;3.00;;
65543;SDS011;52173;45.204;39.240;2023-07-13T12:40:14;5.57;;;3.08;;
65543;SDS011;52173;45.204;39.240;2023-07-13T12:42:41;6.28;;;3.30;;
65543;SDS011;52173;45.204;39.240;2023-07-13T12:47:47;5.97;;;3.10;;
65543;SDS011;52173;45.204;39.240;2023-07-13T12:50:15;6.43;;;2.97;;
65543;SDS011;52173;45.204;39.240;2023-07-13T12:52:43;5.78;;;3.28;;
65543;SDS011;52173;45.204;39.240;2023-07-13T12:55:16;8.32;;;3.30;;
65543;SDS011;52173;45.204;39.240;2023-07-13T12:57:56;9.75;;;3.30;;
65543;SDS011;52173;45.204;39.240;2023-07-13T13:00:31;11.82;;;3.50;;
65543;SDS011;52173;45.204;39.240;2023-07-13T13:03:05;6.43;;;3.10;;
65543;SDS011;52173;45.204;39.240;2023-07-13T13:07:57;6.10;;;2.88;;
65543;SDS011;52173;45.204;39.240;2023-07-13T13:10:24;7.40;;;3.15;;
65543;SDS011;52173;45.204;39.240;2023-07-13T13:12:51;12.27;;;3.90;;
65543;SDS011;52173;45.204;39.240;2023-07-13T13:15:19;8.13;;;3.40;;
65543;SDS011;52173;45.204;39.240;2023-07-13T13:17:49;11.43;;;3.85;;
65543;SDS011;52173;45.204;39.240;2023-07-13T13:20:15;11.93;;;3.30;;
65543;SDS011;52173;45.204;39.240;2023-07-13T13:22:41;8.60;;;3.50;;
65543;SDS011;52173;45.204;39.240;2023-07-13T13:25:13;6.50;;;3.05;;
65543;SDS011;52173;45.204;39.240;2023-07-13T13:27:43;13.13;;;3.30;;
65543;SDS011;52173;45.204;39.240;2023-07-13T13:30:13;6.80;;;3.25;;
65543;SDS011;52173;45.204;39.240;2023-07-13T13:32:40;6.47;;;3.15;;
65543;SDS011;52173;45.204;39.240;2023-07-13T13:35:18;9.48;;;3.25;;
65543;SDS011;52173;45.204;39.240;2023-07-13T13:37:44;10.73;;;3.42;;
65543;SDS011;52173;45.204;39.240;2023-07-13T13:40:15;8.38;;;3.30;;
65543;SDS011;52173;45.204;39.240;2023-07-13T13:42:44;6.30;;;3.25;;
65543;SDS011;52173;45.204;39.240;2023-07-13T13:45:12;8.10;;;3.53;;
65543;SDS011;52173;45.204;39.240;2023-07-13T13:47:43;6.82;;;3.22;;
65543;SDS011;52173;45.204;39.240;2023-07-13T13:50:20;5.38;;;3.30;;
65543;SDS011;52173;45.204;39.240;2023-07-13T13:52:47;5.60;;;2.92;;
65543;SDS011;52173;45.204;39.240;2023-07-13T13:55:14;5.97;;;3.30;;
65543;SDS011;52173;45.204;39.240;2023-07-13T13:57:42;8.48;;;3.38;;
65543;SDS011;52173;45.204;39.240;2023-07-13T14:00:09;7.60;;;3.45;;
65543;SDS011;52173;45.204;39.240;2023-07-13T14:02:37;9.98;;;3.80;;
65543;SDS011;52173;45.204;39.240;2023-07-13T14:05:05;9.13;;;3.83;;
65543;SDS011;52173;45.204;39.240;2023-07-13T14:07:33;7.43;;;3.78;;
65543;SDS011;52173;45.204;39.240;2023-07-13T14:09:59;7.70;;;3.80;;
65543;SDS011;52173;45.204;39.240;2023-07-13T14:12:26;6.97;;;3.42;;
65543;SDS011;52173;45.204;39.240;2023-07-13T14:14:58;6.15;;;3.30;;
65543;SDS011;52173;45.204;39.240;2023-07-13T14:17:25;8.60;;;3.42;;
65543;SDS011;52173;45.204;39.240;2023-07-13T14:19:54;7.80;;;4.00;;
65543;SDS011;52173;45.204;39.240;2023-07-13T14:22:23;7.07;;;4.05;;
65543;SDS011;52173;45.204;39.240;2023-07-13T14:24:51;17.98;;;5.20;;
65543;SDS011;52173;45.204;39.240;2023-07-13T14:27:17;12.85;;;4.50;;
65543;SDS011;52173;45.204;39.240;2023-07-13T14:29:43;11.55;;;4.40;;
65543;SDS011;52173;45.204;39.240;2023-07-13T14:32:10;7.45;;;4.00;;
65543;SDS011;52173;45.204;39.240;2023-07-13T14:34:36;5.20;;;3.20;;
65543;SDS011;52173;45.204;39.240;2023-07-13T14:37:02;6.28;;;3.40;;
65543;SDS011;52173;45.204;39.240;2023-07-13T14:39:29;5.13;;;3.60;;
65543;SDS011;52173;45.204;39.240;2023-07-13T14:41:56;9.27;;;3.25;;
65543;SDS011;52173;45.204;39.240;2023-07-13T14:44:26;7.50;;;3.53;;
65543;SDS011;52173;45.204;39.240;2023-07-13T14:46:54;10.85;;;3.45;;
65543;SDS011;52173;45.204;39.240;2023-07-13T14:51:49;8.40;;;3.92;;
65543;SDS011;52173;45.204;39.240;2023-07-13T14:54:15;8.52;;;3.53;;
65543;SDS011;52173;45.204;39.240;2023-07-13T14:56:41;8.82;;;3.22;;
65543;SDS011;52173;45.204;39.240;2023-07-13T14:59:07;5.55;;;3.00;;
65543;SDS011;52173;45.204;39.240;2023-07-13T15:01:34;7.72;;;3.47;;
65543;SDS011;52173;45.204;39.240;2023-07-13T15:04:00;5.30;;;3.08;;
65543;SDS011;52173;45.204;39.240;2023-07-13T15:06:26;5.93;;;3.30;;
65543;SDS011;52173;45.204;39.240;2023-07-13T15:08:52;5.95;;;3.10;;
65543;SDS011;52173;45.204;39.240;2023-07-13T15:11:17;6.18;;;3.22;;
65543;SDS011;52173;45.204;39.240;2023-07-13T15:13:44;9.80;;;3.90;;
65543;SDS011;52173;45.204;39.240;2023-07-13T15:16:26;6.30;;;3.83;;
65543;SDS011;52173;45.204;39.240;2023-07-13T15:18:52;5.45;;;3.30;;
65543;SDS011;52173;45.204;39.240;2023-07-13T15:21:21;8.48;;;3.20;;
65543;SDS011;52173;45.204;39.240;2023-07-13T15:23:49;8.57;;;3.00;;
65543;SDS011;52173;45.204;39.240;2023-07-13T15:26:16;6.60;;;2.95;;
65543;SDS011;52173;45.204;39.240;2023-07-13T15:28:43;4.95;;;3.08;;
65543;SDS011;52173;45.204;39.240;2023-07-13T15:31:20;5.38;;;3.13;;
65543;SDS011;52173;45.204;39.240;2023-07-13T15:33:46;7.57;;;3.03;;
65543;SDS011;52173;45.204;39.240;2023-07-13T15:36:16;8.07;;;3.22;;
65543;SDS011;52173;45.204;39.240;2023-07-13T15:38:44;6.45;;;3.95;;
65543;SDS011;52173;45.204;39.240;2023-07-13T15:41:18;7.18;;;3.20;;
65543;SDS011;52173;45.204;39.240;2023-07-13T15:43:46;6.63;;;3.28;;
65543;SDS011;52173;45.204;39.240;2023-07-13T15:46:13;7.10;;;3.33;;
65543;SDS011;52173;45.204;39.240;2023-07-13T15:48:39;5.30;;;3.15;;
65543;SDS011;52173;45.204;39.240;2023-07-13T15:51:05;7.60;;;3.65;;
65543;SDS011;52173;45.204;39.240;2023-07-13T15:53:38;10.43;;;3.88;;
65543;SDS011;52173;45.204;39.240;2023-07-13T15:56:14;14.80;;;4.22;;
65543;SDS011;52173;45.204;39.240;2023-07-13T15:58:43;10.23;;;3.88;;
65543;SDS011;52173;45.204;39.240;2023-07-13T16:01:10;8.70;;;3.90;;
65543;SDS011;52173;45.204;39.240;2023-07-13T16:03:37;8.20;;;3.90;;
65543;SDS011;52173;45.204;39.240;2023-07-13T16:06:03;7.15;;;3.88;;
65543;SDS011;52173;45.204;39.240;2023-07-13T16:08:31;8.88;;;4.03;;
65543;SDS011;52173;45.204;39.240;2023-07-13T16:10:59;12.57;;;4.15;;
65543;SDS011;52173;45.204;39.240;2023-07-13T16:13:25;9.65;;;3.97;;
65543;SDS011;52173;45.204;39.240;2023-07-13T16:15:53;8.68;;;3.97;;
65543;SDS011;52173;45.204;39.240;2023-07-13T16:18:21;8.93;;;3.92;;
65543;SDS011;52173;45.204;39.240;2023-07-13T16:20:48;11.18;;;3.97;;
65543;SDS011;52173;45.204;39.240;2023-07-13T16:23:15;14.43;;;4.78;;
65543;SDS011;52173;45.204;39.240;2023-07-13T16:25:45;11.25;;;5.18;;
65543;SDS011;52173;45.204;39.240;2023-07-13T16:28:12;20.08;;;5.22;;
65543;SDS011;52173;45.204;39.240;2023-07-13T16:30:39;15.30;;;5.03;;
65543;SDS011;52173;45.204;39.240;2023-07-13T16:33:06;19.65;;;5.43;;
65543;SDS011;52173;45.204;39.240;2023-07-13T16:35:35;14.63;;;5.68;;
65543;SDS011;52173;45.204;39.240;2023-07-13T16:38:02;10.38;;;4.63;;
65543;SDS011;52173;45.204;39.240;2023-07-13T16:40:31;9.15;;;5.03;;
65543;SDS011;52173;45.204;39.240;2023-07-13T16:42:59;10.27;;;5.90;;
65543;SDS011;52173;45.204;39.240;2023-07-13T16:45:32;12.07;;;6.50;;
65543;SDS011;52173;45.204;39.240;2023-07-13T16:48:02;14.15;;;7.93;;
65543;SDS011;52173;45.204;39.240;2023-07-13T16:50:33;16.33;;;8.73;;
65543;SDS011;52173;45.204;39.240;2023-07-13T16:53:02;20.00;;;8.38;;
65543;SDS011;52173;45.204;39.240;2023-07-13T16:55:31;19.80;;;8.13;;
65543;SDS011;52173;45.204;39.240;2023-07-13T16:57:58;15.68;;;8.70;;
65543;SDS011;52173;45.204;39.240;2023-07-13T17:00:31;15.35;;;7.60;;
65543;SDS011;52173;45.204;39.240;2023-07-13T17:02:59;15.02;;;7.00;;
65543;SDS011;52173;45.204;39.240;2023-07-13T17:08:59;21.85;;;6.35;;
65543;SDS011;52173;45.204;39.240;2023-07-13T17:11:26;26.67;;;7.30;;
65543;SDS011;52173;45.204;39.240;2023-07-13T17:13:57;16.83;;;6.82;;
65543;SDS011;52173;45.204;39.240;2023-07-13T17:16:25;21.25;;;6.97;;
65543;SDS011;52173;45.204;39.240;2023-07-13T17:18:53;15.48;;;6.53;;
65543;SDS011;52173;45.204;39.240;2023-07-13T17:21:19;19.88;;;6.03;;
65543;SDS011;52173;45.204;39.240;2023-07-13T17:23:45;14.90;;;5.68;;
65543;SDS011;52173;45.204;39.240;2023-07-13T17:26:12;15.48;;;6.22;;
65543;SDS011;52173;45.204;39.240;2023-07-13T17:28:39;17.55;;;5.72;;
65543;SDS011;52173;45.204;39.240;2023-07-13T17:31:09;13.38;;;5.75;;
65543;SDS011;52173;45.204;39.240;2023-07-13T17:33:38;14.45;;;5.50;;
65543;SDS011;52173;45.204;39.240;2023-07-13T17:36:10;12.25;;;5.60;;
65543;SDS011;52173;45.204;39.240;2023-07-13T17:38:43;15.18;;;5.53;;
65543;SDS011;52173;45.204;39.240;2023-07-13T17:41:10;13.13;;;6.07;;
65543;SDS011;52173;45.204;39.240;2023-07-13T17:47:23;18.52;;;5.63;;
65543;SDS011;52173;45.204;39.240;2023-07-13T17:49:50;16.42;;;6.05;;
65543;SDS011;52173;45.204;39.240;2023-07-13T17:52:27;14.07;;;5.93;;
65543;SDS011;52173;45.204;39.240;2023-07-13T17:55:00;16.25;;;6.70;;
65543;SDS011;52173;45.204;39.240;2023-07-13T17:57:28;16.80;;;6.60;;
65543;SDS011;52173;45.204;39.240;2023-07-13T18:00:01;15.20;;;7.40;;
65543;SDS011;52173;45.204;39.240;2023-07-13T18:02:35;10.90;;;6.88;;
65543;SDS011;52173;45.204;39.240;2023-07-13T18:05:03;12.30;;;7.25;;
65543;SDS011;52173;45.204;39.240;2023-07-13T18:07:37;15.32;;;7.60;;
65543;SDS011;52173;45.204;39.240;2023-07-13T18:10:11;21.48;;;7.55;;
65543;SDS011;52173;45.204;39.240;2023-07-13T18:16:14;11.02;;;8.05;;
65543;SDS011;52173;45.204;39.240;2023-07-13T18:18:42;14.27;;;7.88;;
65543;SDS011;52173;45.204;39.240;2023-07-13T18:21:12;12.30;;;7.38;;
65543;SDS011;52173;45.204;39.240;2023-07-13T18:23:42;17.23;;;8.60;;
65543;SDS011;52173;45.204;39.240;2023-07-13T18:26:12;13.10;;;8.30;;
65543;SDS011;52173;45.204;39.240;2023-07-13T18:28:41;12.13;;;8.25;;
65543;SDS011;52173;45.204;39.240;2023-07-13T18:31:12;17.48;;;8.30;;
65543;SDS011;52173;45.204;39.240;2023-07-13T18:33:40;12.63;;;8.77;;
65543;SDS011;52173;45.204;39.240;2023-07-13T18:36:14;15.25;;;9.07;;